sensor_id;sensor_type;location;lat;lon;timestamp;P1;durP1;ratioP1;P2;durP2;ratioP2
20830;SDS011;10576;53.556;9.868;2023-02-14T00:00:54;37.35;;;22.17;;
20830;SDS011;10576;53.556;9.868;2023-02-14T00:03:20;36.30;;;22.30;;
20830;SDS011;10576;53.556;9.868;2023-02-14T00:05:45;37.38;;;23.10;;
20830;SDS011;10576;53.556;9.868;2023-02-14T00:08:11;38.47;;;23.38;;
20830;SDS011;10576;53.556;9.868;2023-02-14T00:10:37;37.13;;;22.55;;
20830;SDS011;10576;53.556;9.868;2023-02-14T00:13:02;35.05;;;22.17;;
20830;SDS011;10576;53.556;9.868;2023-02-14T00:15:28;36.97;;;22.27;;
20830;SDS011;10576;53.556;9.868;2023-02-14T00:17:55;36.15;;;22.00;;
20830;SDS011;10576;53.556;9.868;2023-02-14T00:20:23;40.25;;;23.20;;
20830;SDS011;10576;53.556;9.868;2023-02-14T00:22:50;38.45;;;23.33;;
20830;SDS011;10576;53.556;9.868;2023-02-14T00:25:16;36.55;;;22.52;;
20830;SDS011;10576;53.556;9.868;2023-02-14T00:27:42;35.53;;;22.60;;
20830;SDS011;10576;53.556;9.868;2023-02-14T00:30:08;37.40;;;22.35;;
20830;SDS011;10576;53.556;9.868;2023-02-14T00:32:39;37.38;;;22.95;;
20830;SDS011;10576;53.556;9.868;2023-02-14T00:35:05;35.78;;;22.10;;
20830;SDS011;10576;53.556;9.868;2023-02-14T00:37:32;39.78;;;22.73;;
20830;SDS011;10576;53.556;9.868;2023-02-14T00:39:58;37.90;;;22.75;;
20830;SDS011;10576;53.556;9.868;2023-02-14T00:42:24;38.57;;;22.70;;
20830;SDS011;10576;53.556;9.868;2023-02-14T00:44:49;38.07;;;22.63;;
20830;SDS011;10576;53.556;9.868;2023-02-14T00:47:15;36.63;;;22.13;;
20830;SDS011;10576;53.556;9.868;2023-02-14T00:49:41;38.47;;;23.23;;
20830;SDS011;10576;53.556;9.868;2023-02-14T00:52:06;36.42;;;23.45;;
20830;SDS011;10576;53.556;9.868;2023-02-14T00:54:32;38.75;;;23.33;;
20830;SDS011;10576;53.556;9.868;2023-02-14T00:56:58;37.20;;;23.17;;
20830;SDS011;10576;53.556;9.868;2023-02-14T00:59:24;36.83;;;22.37;;
20830;SDS011;10576;53.556;9.868;2023-02-14T01:01:49;37.03;;;22.02;;
20830;SDS011;10576;53.556;9.868;2023-02-14T01:04:15;37.00;;;23.40;;
20830;SDS011;10576;53.556;9.868;2023-02-14T01:06:41;36.78;;;22.33;;
20830;SDS011;10576;53.556;9.868;2023-02-14T01:09:07;37.10;;;22.53;;
20830;SDS011;10576;53.556;9.868;2023-02-14T01:11:32;39.23;;;22.37;;
20830;SDS011;10576;53.556;9.868;2023-02-14T01:13:58;40.15;;;22.25;;
20830;SDS011;10576;53.556;9.868;2023-02-14T01:16:24;36.15;;;22.30;;
20830;SDS011;10576;53.556;9.868;2023-02-14T01:18:51;36.17;;;22.40;;
20830;SDS011;10576;53.556;9.868;2023-02-14T01:21:22;35.53;;;22.23;;
20830;SDS011;10576;53.556;9.868;2023-02-14T01:23:53;35.80;;;22.33;;
20830;SDS011;10576;53.556;9.868;2023-02-14T01:26:20;37.80;;;22.55;;
20830;SDS011;10576;53.556;9.868;2023-02-14T01:28:47;37.10;;;23.23;;
20830;SDS011;10576;53.556;9.868;2023-02-14T01:31:17;37.00;;;23.17;;
20830;SDS011;10576;53.556;9.868;2023-02-14T01:33:45;35.85;;;22.98;;
20830;SDS011;10576;53.556;9.868;2023-02-14T01:36:16;37.50;;;22.65;;
20830;SDS011;10576;53.556;9.868;2023-02-14T01:38:43;35.00;;;21.90;;
20830;SDS011;10576;53.556;9.868;2023-02-14T01:41:09;35.75;;;21.95;;
20830;SDS011;10576;53.556;9.868;2023-02-14T01:46:21;38.15;;;22.60;;
20830;SDS011;10576;53.556;9.868;2023-02-14T01:48:47;38.38;;;22.45;;
20830;SDS011;10576;53.556;9.868;2023-02-14T01:51:14;35.85;;;21.95;;
20830;SDS011;10576;53.556;9.868;2023-02-14T01:53:42;37.22;;;22.20;;
20830;SDS011;10576;53.556;9.868;2023-02-14T01:56:09;38.90;;;22.77;;
20830;SDS011;10576;53.556;9.868;2023-02-14T01:58:39;38.05;;;22.38;;
20830;SDS011;10576;53.556;9.868;2023-02-14T02:01:10;40.45;;;23.45;;
20830;SDS011;10576;53.556;9.868;2023-02-14T02:03:42;38.83;;;23.58;;
20830;SDS011;10576;53.556;9.868;2023-02-14T02:06:14;38.75;;;22.83;;
20830;SDS011;10576;53.556;9.868;2023-02-14T02:09:06;37.88;;;23.02;;
20830;SDS011;10576;53.556;9.868;2023-02-14T02:11:39;38.40;;;23.35;;
20830;SDS011;10576;53.556;9.868;2023-02-14T02:14:05;38.40;;;23.17;;
20830;SDS011;10576;53.556;9.868;2023-02-14T02:19:13;38.50;;;24.00;;
20830;SDS011;10576;53.556;9.868;2023-02-14T02:45:49;38.10;;;22.50;;
20830;SDS011;10576;53.556;9.868;2023-02-14T02:51:36;39.50;;;23.97;;
20830;SDS011;10576;53.556;9.868;2023-02-14T02:54:30;36.00;;;22.23;;
20830;SDS011;10576;53.556;9.868;2023-02-14T02:57:04;37.75;;;22.98;;
20830;SDS011;10576;53.556;9.868;2023-02-14T02:59:37;38.42;;;22.85;;
20830;SDS011;10576;53.556;9.868;2023-02-14T03:02:16;40.08;;;22.10;;
20830;SDS011;10576;53.556;9.868;2023-02-14T03:04:50;37.42;;;22.05;;
20830;SDS011;10576;53.556;9.868;2023-02-14T03:07:20;38.87;;;22.80;;
20830;SDS011;10576;53.556;9.868;2023-02-14T03:29:37;40.00;;;23.17;;
20830;SDS011;10576;53.556;9.868;2023-02-14T03:32:16;37.40;;;22.60;;
20830;SDS011;10576;53.556;9.868;2023-02-14T03:34:56;41.13;;;23.10;;
20830;SDS011;10576;53.556;9.868;2023-02-14T03:40:08;40.33;;;23.63;;
20830;SDS011;10576;53.556;9.868;2023-02-14T03:42:40;39.50;;;22.58;;
20830;SDS011;10576;53.556;9.868;2023-02-14T03:45:13;44.47;;;24.08;;
20830;SDS011;10576;53.556;9.868;2023-02-14T03:47:44;41.97;;;24.83;;
20830;SDS011;10576;53.556;9.868;2023-02-14T03:50:13;40.97;;;24.27;;
20830;SDS011;10576;53.556;9.868;2023-02-14T03:52:41;43.38;;;24.33;;
20830;SDS011;10576;53.556;9.868;2023-02-14T03:55:09;43.55;;;24.92;;
20830;SDS011;10576;53.556;9.868;2023-02-14T03:57:45;40.77;;;24.33;;
20830;SDS011;10576;53.556;9.868;2023-02-14T04:00:17;44.33;;;24.47;;
20830;SDS011;10576;53.556;9.868;2023-02-14T04:02:48;39.08;;;22.88;;
20830;SDS011;10576;53.556;9.868;2023-02-14T04:05:25;41.45;;;24.30;;
20830;SDS011;10576;53.556;9.868;2023-02-14T04:07:53;44.65;;;24.42;;
20830;SDS011;10576;53.556;9.868;2023-02-14T04:10:19;43.50;;;24.80;;
20830;SDS011;10576;53.556;9.868;2023-02-14T04:12:46;44.25;;;25.05;;
20830;SDS011;10576;53.556;9.868;2023-02-14T04:15:12;44.37;;;24.97;;
20830;SDS011;10576;53.556;9.868;2023-02-14T04:17:39;42.13;;;24.50;;
20830;SDS011;10576;53.556;9.868;2023-02-14T04:20:24;44.15;;;24.30;;
20830;SDS011;10576;53.556;9.868;2023-02-14T04:22:50;45.15;;;24.95;;
20830;SDS011;10576;53.556;9.868;2023-02-14T04:25:17;43.43;;;24.53;;
20830;SDS011;10576;53.556;9.868;2023-02-14T04:27:43;40.90;;;24.67;;
20830;SDS011;10576;53.556;9.868;2023-02-14T04:30:09;43.05;;;24.63;;
20830;SDS011;10576;53.556;9.868;2023-02-14T04:32:36;42.08;;;25.73;;
20830;SDS011;10576;53.556;9.868;2023-02-14T04:35:03;39.13;;;24.00;;
20830;SDS011;10576;53.556;9.868;2023-02-14T04:37:29;46.93;;;24.67;;
20830;SDS011;10576;53.556;9.868;2023-02-14T04:39:55;43.60;;;24.85;;
20830;SDS011;10576;53.556;9.868;2023-02-14T04:42:21;46.37;;;25.33;;
20830;SDS011;10576;53.556;9.868;2023-02-14T04:44:47;43.33;;;24.75;;
20830;SDS011;10576;53.556;9.868;2023-02-14T04:47:12;40.85;;;23.77;;
20830;SDS011;10576;53.556;9.868;2023-02-14T04:49:38;42.20;;;24.33;;
20830;SDS011;10576;53.556;9.868;2023-02-14T04:52:04;43.83;;;24.80;;
20830;SDS011;10576;53.556;9.868;2023-02-14T04:54:30;42.65;;;24.08;;
20830;SDS011;10576;53.556;9.868;2023-02-14T04:56:56;48.40;;;25.58;;
20830;SDS011;10576;53.556;9.868;2023-02-14T04:59:22;45.45;;;25.17;;
20830;SDS011;10576;53.556;9.868;2023-02-14T05:01:48;44.07;;;24.90;;
20830;SDS011;10576;53.556;9.868;2023-02-14T05:04:14;44.15;;;25.02;;
20830;SDS011;10576;53.556;9.868;2023-02-14T05:06:39;45.15;;;25.60;;
20830;SDS011;10576;53.556;9.868;2023-02-14T05:09:05;44.27;;;24.67;;
20830;SDS011;10576;53.556;9.868;2023-02-14T05:11:31;42.05;;;24.20;;
20830;SDS011;10576;53.556;9.868;2023-02-14T05:13:57;45.67;;;24.87;;
20830;SDS011;10576;53.556;9.868;2023-02-14T05:16:23;45.63;;;25.00;;
20830;SDS011;10576;53.556;9.868;2023-02-14T05:18:49;45.25;;;25.38;;
20830;SDS011;10576;53.556;9.868;2023-02-14T05:21:15;44.03;;;24.87;;
20830;SDS011;10576;53.556;9.868;2023-02-14T05:23:40;44.30;;;24.67;;
20830;SDS011;10576;53.556;9.868;2023-02-14T05:26:06;45.42;;;25.25;;
20830;SDS011;10576;53.556;9.868;2023-02-14T05:28:32;45.50;;;25.57;;
20830;SDS011;10576;53.556;9.868;2023-02-14T05:30:59;42.65;;;24.95;;
20830;SDS011;10576;53.556;9.868;2023-02-14T05:33:25;42.83;;;24.92;;
20830;SDS011;10576;53.556;9.868;2023-02-14T05:35:51;44.15;;;24.35;;
20830;SDS011;10576;53.556;9.868;2023-02-14T05:38:17;43.30;;;25.27;;
20830;SDS011;10576;53.556;9.868;2023-02-14T05:40:43;40.33;;;24.58;;
20830;SDS011;10576;53.556;9.868;2023-02-14T05:43:09;45.08;;;24.70;;
20830;SDS011;10576;53.556;9.868;2023-02-14T05:45:35;41.17;;;24.63;;
20830;SDS011;10576;53.556;9.868;2023-02-14T05:48:02;40.90;;;24.13;;
20830;SDS011;10576;53.556;9.868;2023-02-14T05:50:28;43.95;;;24.73;;
20830;SDS011;10576;53.556;9.868;2023-02-14T05:52:54;44.20;;;25.07;;
20830;SDS011;10576;53.556;9.868;2023-02-14T05:55:20;43.22;;;23.92;;
20830;SDS011;10576;53.556;9.868;2023-02-14T05:57:46;43.10;;;24.90;;
20830;SDS011;10576;53.556;9.868;2023-02-14T06:00:13;41.45;;;24.30;;
20830;SDS011;10576;53.556;9.868;2023-02-14T06:02:39;43.63;;;24.23;;
20830;SDS011;10576;53.556;9.868;2023-02-14T06:05:05;43.17;;;24.55;;
20830;SDS011;10576;53.556;9.868;2023-02-14T06:07:31;42.72;;;24.98;;
20830;SDS011;10576;53.556;9.868;2023-02-14T06:09:57;45.78;;;25.63;;
20830;SDS011;10576;53.556;9.868;2023-02-14T06:12:22;44.90;;;25.10;;
20830;SDS011;10576;53.556;9.868;2023-02-14T06:14:48;48.10;;;26.38;;
20830;SDS011;10576;53.556;9.868;2023-02-14T06:17:14;42.63;;;24.48;;
20830;SDS011;10576;53.556;9.868;2023-02-14T06:19:40;42.92;;;24.83;;
20830;SDS011;10576;53.556;9.868;2023-02-14T06:22:07;44.80;;;25.13;;
20830;SDS011;10576;53.556;9.868;2023-02-14T06:24:33;44.35;;;25.30;;
20830;SDS011;10576;53.556;9.868;2023-02-14T06:26:59;46.13;;;25.40;;
20830;SDS011;10576;53.556;9.868;2023-02-14T06:29:25;42.63;;;24.63;;
20830;SDS011;10576;53.556;9.868;2023-02-14T06:31:51;43.83;;;25.40;;
20830;SDS011;10576;53.556;9.868;2023-02-14T06:34:17;42.92;;;23.95;;
20830;SDS011;10576;53.556;9.868;2023-02-14T06:36:43;42.08;;;24.13;;
20830;SDS011;10576;53.556;9.868;2023-02-14T06:39:09;42.47;;;25.55;;
20830;SDS011;10576;53.556;9.868;2023-02-14T06:41:34;44.77;;;25.27;;
20830;SDS011;10576;53.556;9.868;2023-02-14T06:44:00;45.30;;;26.15;;
20830;SDS011;10576;53.556;9.868;2023-02-14T06:46:26;43.55;;;25.67;;
20830;SDS011;10576;53.556;9.868;2023-02-14T06:48:52;45.15;;;24.08;;
20830;SDS011;10576;53.556;9.868;2023-02-14T06:51:18;41.38;;;24.55;;
20830;SDS011;10576;53.556;9.868;2023-02-14T06:53:44;42.38;;;24.77;;
20830;SDS011;10576;53.556;9.868;2023-02-14T06:56:10;40.15;;;24.30;;
20830;SDS011;10576;53.556;9.868;2023-02-14T06:58:36;45.17;;;25.17;;
20830;SDS011;10576;53.556;9.868;2023-02-14T07:01:02;41.63;;;23.83;;
20830;SDS011;10576;53.556;9.868;2023-02-14T07:03:28;44.83;;;24.55;;
20830;SDS011;10576;53.556;9.868;2023-02-14T07:05:54;42.63;;;24.30;;
20830;SDS011;10576;53.556;9.868;2023-02-14T07:08:22;43.30;;;24.48;;
20830;SDS011;10576;53.556;9.868;2023-02-14T07:10:48;43.20;;;24.02;;
20830;SDS011;10576;53.556;9.868;2023-02-14T07:13:13;43.92;;;24.25;;
20830;SDS011;10576;53.556;9.868;2023-02-14T07:15:39;44.15;;;25.33;;
20830;SDS011;10576;53.556;9.868;2023-02-14T07:18:05;41.57;;;24.27;;
20830;SDS011;10576;53.556;9.868;2023-02-14T07:20:34;41.10;;;23.63;;
20830;SDS011;10576;53.556;9.868;2023-02-14T07:23:00;41.53;;;23.63;;
20830;SDS011;10576;53.556;9.868;2023-02-14T07:25:26;41.30;;;23.42;;
20830;SDS011;10576;53.556;9.868;2023-02-14T07:27:52;40.17;;;23.07;;
20830;SDS011;10576;53.556;9.868;2023-02-14T07:30:18;43.63;;;23.67;;
20830;SDS011;10576;53.556;9.868;2023-02-14T07:32:44;40.80;;;23.57;;
20830;SDS011;10576;53.556;9.868;2023-02-14T07:35:10;38.97;;;23.42;;
20830;SDS011;10576;53.556;9.868;2023-02-14T07:37:36;45.25;;;23.70;;
20830;SDS011;10576;53.556;9.868;2023-02-14T07:40:02;38.15;;;22.83;;
20830;SDS011;10576;53.556;9.868;2023-02-14T07:42:29;40.00;;;22.88;;
20830;SDS011;10576;53.556;9.868;2023-02-14T07:44:55;36.72;;;22.27;;
20830;SDS011;10576;53.556;9.868;2023-02-14T07:47:21;35.95;;;21.58;;
20830;SDS011;10576;53.556;9.868;2023-02-14T07:49:48;37.28;;;21.98;;
20830;SDS011;10576;53.556;9.868;2023-02-14T07:52:14;37.67;;;21.98;;
20830;SDS011;10576;53.556;9.868;2023-02-14T07:54:40;41.60;;;22.70;;
20830;SDS011;10576;53.556;9.868;2023-02-14T07:57:06;37.65;;;22.45;;
20830;SDS011;10576;53.556;9.868;2023-02-14T07:59:32;36.92;;;22.58;;
20830;SDS011;10576;53.556;9.868;2023-02-14T08:01:58;36.67;;;22.50;;
20830;SDS011;10576;53.556;9.868;2023-02-14T08:04:24;36.85;;;20.98;;
20830;SDS011;10576;53.556;9.868;2023-02-14T08:06:50;36.05;;;22.33;;
20830;SDS011;10576;53.556;9.868;2023-02-14T08:09:16;34.55;;;21.10;;
20830;SDS011;10576;53.556;9.868;2023-02-14T08:11:49;34.85;;;20.75;;
20830;SDS011;10576;53.556;9.868;2023-02-14T08:14:37;35.33;;;21.42;;
20830;SDS011;10576;53.556;9.868;2023-02-14T08:17:04;34.05;;;20.80;;
20830;SDS011;10576;53.556;9.868;2023-02-14T08:19:31;32.13;;;20.20;;
20830;SDS011;10576;53.556;9.868;2023-02-14T08:21:57;29.67;;;19.37;;
20830;SDS011;10576;53.556;9.868;2023-02-14T08:24:23;29.65;;;19.50;;
20830;SDS011;10576;53.556;9.868;2023-02-14T08:26:49;28.20;;;19.23;;
20830;SDS011;10576;53.556;9.868;2023-02-14T08:29:16;32.97;;;19.98;;
20830;SDS011;10576;53.556;9.868;2023-02-14T08:31:42;28.00;;;19.30;;
20830;SDS011;10576;53.556;9.868;2023-02-14T08:34:07;31.92;;;19.48;;
20830;SDS011;10576;53.556;9.868;2023-02-14T08:36:33;27.25;;;18.35;;
20830;SDS011;10576;53.556;9.868;2023-02-14T08:38:59;29.97;;;18.97;;
20830;SDS011;10576;53.556;9.868;2023-02-14T08:41:26;28.85;;;19.27;;
20830;SDS011;10576;53.556;9.868;2023-02-14T08:43:52;27.20;;;18.70;;
20830;SDS011;10576;53.556;9.868;2023-02-14T08:46:18;30.55;;;19.10;;
20830;SDS011;10576;53.556;9.868;2023-02-14T08:48:43;26.30;;;17.92;;
20830;SDS011;10576;53.556;9.868;2023-02-14T08:51:11;27.83;;;18.20;;
20830;SDS011;10576;53.556;9.868;2023-02-14T08:53:38;25.13;;;17.75;;
20830;SDS011;10576;53.556;9.868;2023-02-14T08:56:05;28.77;;;18.55;;
20830;SDS011;10576;53.556;9.868;2023-02-14T08:58:36;31.00;;;19.30;;
20830;SDS011;10576;53.556;9.868;2023-02-14T09:03:35;27.70;;;19.63;;
20830;SDS011;10576;53.556;9.868;2023-02-14T09:06:02;28.05;;;18.80;;
20830;SDS011;10576;53.556;9.868;2023-02-14T09:08:28;25.15;;;18.58;;
20830;SDS011;10576;53.556;9.868;2023-02-14T09:10:55;28.27;;;17.88;;
20830;SDS011;10576;53.556;9.868;2023-02-14T09:13:21;26.90;;;18.43;;
20830;SDS011;10576;53.556;9.868;2023-02-14T09:15:47;30.67;;;18.45;;
20830;SDS011;10576;53.556;9.868;2023-02-14T09:18:13;25.67;;;17.65;;
20830;SDS011;10576;53.556;9.868;2023-02-14T09:20:40;24.15;;;17.77;;
20830;SDS011;10576;53.556;9.868;2023-02-14T09:26:00;28.10;;;18.23;;
20830;SDS011;10576;53.556;9.868;2023-02-14T09:28:27;24.75;;;17.08;;
20830;SDS011;10576;53.556;9.868;2023-02-14T09:30:53;23.67;;;17.20;;
20830;SDS011;10576;53.556;9.868;2023-02-14T09:33:19;26.45;;;17.27;;
20830;SDS011;10576;53.556;9.868;2023-02-14T09:35:46;25.00;;;17.45;;
20830;SDS011;10576;53.556;9.868;2023-02-14T09:38:30;23.05;;;17.10;;
20830;SDS011;10576;53.556;9.868;2023-02-14T09:40:56;25.63;;;17.37;;
20830;SDS011;10576;53.556;9.868;2023-02-14T09:43:29;22.75;;;16.48;;
20830;SDS011;10576;53.556;9.868;2023-02-14T09:46:27;23.98;;;17.15;;
20830;SDS011;10576;53.556;9.868;2023-02-14T09:48:55;26.10;;;17.33;;
20830;SDS011;10576;53.556;9.868;2023-02-14T09:51:23;25.63;;;17.77;;
20830;SDS011;10576;53.556;9.868;2023-02-14T09:56:21;24.83;;;17.83;;
20830;SDS011;10576;53.556;9.868;2023-02-14T09:59:01;23.80;;;17.10;;
20830;SDS011;10576;53.556;9.868;2023-02-14T10:01:35;24.95;;;17.95;;
20830;SDS011;10576;53.556;9.868;2023-02-14T10:06:47;24.27;;;17.88;;
20830;SDS011;10576;53.556;9.868;2023-02-14T10:12:04;24.40;;;17.80;;
20830;SDS011;10576;53.556;9.868;2023-02-14T10:14:48;24.85;;;18.02;;
20830;SDS011;10576;53.556;9.868;2023-02-14T10:17:18;26.30;;;18.67;;
20830;SDS011;10576;53.556;9.868;2023-02-14T10:23:04;26.15;;;18.48;;
20830;SDS011;10576;53.556;9.868;2023-02-14T10:25:42;27.05;;;18.83;;
20830;SDS011;10576;53.556;9.868;2023-02-14T10:28:13;25.40;;;18.88;;
20830;SDS011;10576;53.556;9.868;2023-02-14T10:30:43;28.83;;;18.92;;
20830;SDS011;10576;53.556;9.868;2023-02-14T10:33:22;26.35;;;19.02;;
20830;SDS011;10576;53.556;9.868;2023-02-14T10:43:39;27.00;;;19.30;;
20830;SDS011;10576;53.556;9.868;2023-02-14T10:49:41;29.95;;;19.27;;
20830;SDS011;10576;53.556;9.868;2023-02-14T10:54:40;26.55;;;18.63;;
20830;SDS011;10576;53.556;9.868;2023-02-14T10:57:16;30.40;;;20.03;;
20830;SDS011;10576;53.556;9.868;2023-02-14T11:02:21;26.63;;;18.33;;
20830;SDS011;10576;53.556;9.868;2023-02-14T11:04:49;26.15;;;19.00;;
20830;SDS011;10576;53.556;9.868;2023-02-14T11:07:17;25.57;;;18.87;;
20830;SDS011;10576;53.556;9.868;2023-02-14T11:09:45;28.67;;;19.05;;
20830;SDS011;10576;53.556;9.868;2023-02-14T11:12:11;26.02;;;19.33;;
20830;SDS011;10576;53.556;9.868;2023-02-14T11:14:38;27.40;;;19.33;;
20830;SDS011;10576;53.556;9.868;2023-02-14T11:20:03;27.77;;;19.25;;
20830;SDS011;10576;53.556;9.868;2023-02-14T11:22:46;29.23;;;19.45;;
20830;SDS011;10576;53.556;9.868;2023-02-14T11:27:45;27.25;;;19.67;;
20830;SDS011;10576;53.556;9.868;2023-02-14T11:30:33;33.65;;;20.02;;
20830;SDS011;10576;53.556;9.868;2023-02-14T11:33:02;26.55;;;18.73;;
20830;SDS011;10576;53.556;9.868;2023-02-14T11:35:28;26.83;;;18.60;;
20830;SDS011;10576;53.556;9.868;2023-02-14T11:38:02;29.55;;;19.90;;
20830;SDS011;10576;53.556;9.868;2023-02-14T11:40:34;28.13;;;19.80;;
20830;SDS011;10576;53.556;9.868;2023-02-14T11:45:31;27.65;;;19.65;;
20830;SDS011;10576;53.556;9.868;2023-02-14T11:51:04;26.73;;;19.17;;
20830;SDS011;10576;53.556;9.868;2023-02-14T11:53:43;32.78;;;20.60;;
20830;SDS011;10576;53.556;9.868;2023-02-14T11:56:13;30.10;;;19.92;;
20830;SDS011;10576;53.556;9.868;2023-02-14T12:01:13;27.60;;;19.03;;
20830;SDS011;10576;53.556;9.868;2023-02-14T12:03:46;27.10;;;19.13;;
20830;SDS011;10576;53.556;9.868;2023-02-14T12:06:21;28.75;;;18.95;;
20830;SDS011;10576;53.556;9.868;2023-02-14T12:08:49;31.65;;;18.45;;
20830;SDS011;10576;53.556;9.868;2023-02-14T12:11:22;26.65;;;18.30;;
20830;SDS011;10576;53.556;9.868;2023-02-14T12:13:52;29.02;;;19.10;;
20830;SDS011;10576;53.556;9.868;2023-02-14T12:16:21;27.55;;;18.45;;
20830;SDS011;10576;53.556;9.868;2023-02-14T12:19:28;29.88;;;18.92;;
20830;SDS011;10576;53.556;9.868;2023-02-14T12:22:07;28.05;;;18.85;;
20830;SDS011;10576;53.556;9.868;2023-02-14T12:24:37;25.48;;;18.23;;
20830;SDS011;10576;53.556;9.868;2023-02-14T12:27:16;26.98;;;19.00;;
20830;SDS011;10576;53.556;9.868;2023-02-14T12:30:04;25.63;;;18.70;;
20830;SDS011;10576;53.556;9.868;2023-02-14T12:32:38;27.60;;;18.90;;
20830;SDS011;10576;53.556;9.868;2023-02-14T13:00:15;27.75;;;19.33;;
20830;SDS011;10576;53.556;9.868;2023-02-14T13:16:06;26.80;;;18.67;;
20830;SDS011;10576;53.556;9.868;2023-02-14T13:21:28;27.67;;;18.70;;
20830;SDS011;10576;53.556;9.868;2023-02-14T13:24:09;27.15;;;19.23;;
20830;SDS011;10576;53.556;9.868;2023-02-14T13:26:51;26.98;;;19.25;;
20830;SDS011;10576;53.556;9.868;2023-02-14T13:29:23;27.98;;;18.63;;
20830;SDS011;10576;53.556;9.868;2023-02-14T13:31:53;25.90;;;18.45;;
20830;SDS011;10576;53.556;9.868;2023-02-14T13:36:55;27.10;;;18.25;;
20830;SDS011;10576;53.556;9.868;2023-02-14T13:39:24;26.60;;;18.75;;
20830;SDS011;10576;53.556;9.868;2023-02-14T13:41:55;27.48;;;18.35;;
20830;SDS011;10576;53.556;9.868;2023-02-14T13:47:06;26.30;;;17.77;;
20830;SDS011;10576;53.556;9.868;2023-02-14T13:49:33;27.85;;;18.20;;
20830;SDS011;10576;53.556;9.868;2023-02-14T13:52:03;26.08;;;17.60;;
20830;SDS011;10576;53.556;9.868;2023-02-14T13:54:40;26.57;;;18.40;;
20830;SDS011;10576;53.556;9.868;2023-02-14T13:57:25;26.48;;;17.75;;
20830;SDS011;10576;53.556;9.868;2023-02-14T14:02:40;25.63;;;18.25;;
20830;SDS011;10576;53.556;9.868;2023-02-14T14:16:26;23.55;;;17.85;;
20830;SDS011;10576;53.556;9.868;2023-02-14T14:19:07;25.02;;;17.50;;
20830;SDS011;10576;53.556;9.868;2023-02-14T14:21:44;25.50;;;17.83;;
20830;SDS011;10576;53.556;9.868;2023-02-14T14:24:28;26.23;;;18.05;;
20830;SDS011;10576;53.556;9.868;2023-02-14T14:26:59;26.52;;;17.98;;
20830;SDS011;10576;53.556;9.868;2023-02-14T14:31:55;24.30;;;17.20;;
20830;SDS011;10576;53.556;9.868;2023-02-14T14:34:22;28.10;;;17.83;;
20830;SDS011;10576;53.556;9.868;2023-02-14T14:37:04;26.50;;;17.95;;
20830;SDS011;10576;53.556;9.868;2023-02-14T14:39:33;24.45;;;17.83;;
20830;SDS011;10576;53.556;9.868;2023-02-14T14:42:06;26.60;;;17.52;;
20830;SDS011;10576;53.556;9.868;2023-02-14T14:45:18;25.83;;;17.55;;
20830;SDS011;10576;53.556;9.868;2023-02-14T14:47:39;24.27;;;18.10;;
20830;SDS011;10576;53.556;9.868;2023-02-14T14:50:18;25.27;;;17.67;;
20830;SDS011;10576;53.556;9.868;2023-02-14T14:52:50;26.00;;;17.93;;
20830;SDS011;10576;53.556;9.868;2023-02-14T14:55:20;25.77;;;17.67;;
20830;SDS011;10576;53.556;9.868;2023-02-14T14:57:51;26.70;;;18.08;;
20830;SDS011;10576;53.556;9.868;2023-02-14T15:00:28;24.40;;;17.40;;
20830;SDS011;10576;53.556;9.868;2023-02-14T15:07:53;25.77;;;18.02;;
20830;SDS011;10576;53.556;9.868;2023-02-14T15:10:30;26.92;;;18.42;;
20830;SDS011;10576;53.556;9.868;2023-02-14T15:12:57;24.42;;;17.42;;
20830;SDS011;10576;53.556;9.868;2023-02-14T15:15:46;25.52;;;17.55;;
20830;SDS011;10576;53.556;9.868;2023-02-14T15:18:14;28.15;;;17.67;;
20830;SDS011;10576;53.556;9.868;2023-02-14T15:20:41;24.35;;;17.10;;
20830;SDS011;10576;53.556;9.868;2023-02-14T15:23:21;23.00;;;16.93;;
20830;SDS011;10576;53.556;9.868;2023-02-14T15:25:48;24.77;;;16.90;;
20830;SDS011;10576;53.556;9.868;2023-02-14T15:28:25;23.50;;;16.77;;
20830;SDS011;10576;53.556;9.868;2023-02-14T15:30:59;24.70;;;16.60;;
20830;SDS011;10576;53.556;9.868;2023-02-14T15:33:27;28.60;;;17.52;;
20830;SDS011;10576;53.556;9.868;2023-02-14T15:35:53;23.48;;;16.58;;
20830;SDS011;10576;53.556;9.868;2023-02-14T15:38:20;21.77;;;16.00;;
20830;SDS011;10576;53.556;9.868;2023-02-14T15:40:49;25.60;;;17.00;;
20830;SDS011;10576;53.556;9.868;2023-02-14T15:45:51;28.50;;;16.48;;
20830;SDS011;10576;53.556;9.868;2023-02-14T15:48:26;23.83;;;16.95;;
20830;SDS011;10576;53.556;9.868;2023-02-14T15:50:57;24.70;;;17.27;;
20830;SDS011;10576;53.556;9.868;2023-02-14T15:56:00;24.20;;;16.83;;
20830;SDS011;10576;53.556;9.868;2023-02-14T15:58:28;24.00;;;16.17;;
20830;SDS011;10576;53.556;9.868;2023-02-14T16:00:56;23.20;;;16.42;;
20830;SDS011;10576;53.556;9.868;2023-02-14T16:03:24;22.20;;;15.68;;
20830;SDS011;10576;53.556;9.868;2023-02-14T16:05:52;23.52;;;16.05;;
20830;SDS011;10576;53.556;9.868;2023-02-14T16:10:57;21.77;;;16.00;;
20830;SDS011;10576;53.556;9.868;2023-02-14T16:13:28;24.17;;;16.35;;
20830;SDS011;10576;53.556;9.868;2023-02-14T16:15:56;21.88;;;16.00;;
20830;SDS011;10576;53.556;9.868;2023-02-14T16:21:17;23.33;;;16.20;;
20830;SDS011;10576;53.556;9.868;2023-02-14T16:23:45;22.88;;;16.42;;
20830;SDS011;10576;53.556;9.868;2023-02-14T16:26:12;25.95;;;16.98;;
20830;SDS011;10576;53.556;9.868;2023-02-14T16:28:38;23.67;;;16.45;;
20830;SDS011;10576;53.556;9.868;2023-02-14T16:31:05;24.58;;;16.58;;
20830;SDS011;10576;53.556;9.868;2023-02-14T16:33:38;24.70;;;17.05;;
20830;SDS011;10576;53.556;9.868;2023-02-14T16:38:53;23.90;;;16.70;;
20830;SDS011;10576;53.556;9.868;2023-02-14T16:41:24;24.73;;;17.35;;
20830;SDS011;10576;53.556;9.868;2023-02-14T16:43:51;24.92;;;16.73;;
20830;SDS011;10576;53.556;9.868;2023-02-14T16:46:35;24.48;;;16.70;;
20830;SDS011;10576;53.556;9.868;2023-02-14T16:49:01;22.87;;;15.83;;
20830;SDS011;10576;53.556;9.868;2023-02-14T16:51:28;24.73;;;16.33;;
20830;SDS011;10576;53.556;9.868;2023-02-14T16:53:57;25.10;;;16.93;;
20830;SDS011;10576;53.556;9.868;2023-02-14T16:56:26;25.00;;;16.77;;
20830;SDS011;10576;53.556;9.868;2023-02-14T16:59:12;25.52;;;16.73;;
20830;SDS011;10576;53.556;9.868;2023-02-14T17:01:38;24.40;;;16.88;;
20830;SDS011;10576;53.556;9.868;2023-02-14T17:04:05;24.42;;;16.13;;
20830;SDS011;10576;53.556;9.868;2023-02-14T17:06:30;23.65;;;16.58;;
20830;SDS011;10576;53.556;9.868;2023-02-14T17:09:02;23.38;;;16.30;;
20830;SDS011;10576;53.556;9.868;2023-02-14T17:11:33;27.53;;;18.67;;
20830;SDS011;10576;53.556;9.868;2023-02-14T17:14:02;25.00;;;17.30;;
20830;SDS011;10576;53.556;9.868;2023-02-14T17:16:29;27.30;;;18.27;;
20830;SDS011;10576;53.556;9.868;2023-02-14T17:18:55;26.50;;;17.23;;
20830;SDS011;10576;53.556;9.868;2023-02-14T17:21:22;27.50;;;18.33;;
20830;SDS011;10576;53.556;9.868;2023-02-14T17:23:48;26.20;;;18.52;;
20830;SDS011;10576;53.556;9.868;2023-02-14T17:26:14;28.80;;;18.77;;
20830;SDS011;10576;53.556;9.868;2023-02-14T17:28:42;25.95;;;18.02;;
20830;SDS011;10576;53.556;9.868;2023-02-14T17:31:08;26.80;;;18.05;;
20830;SDS011;10576;53.556;9.868;2023-02-14T17:33:34;26.17;;;18.17;;
20830;SDS011;10576;53.556;9.868;2023-02-14T17:36:04;28.10;;;18.77;;